Kezdőlap
METAR-TAF:

METAR-TAF

Repülőterek :

Torino, Olaszország

földrajzi szélesség: 45-05-20N, földrajzi hosszúság: 007-36-20E, magasság: 288 m

Jelenlegi meteorológiai megfigyelések

A jelentés 35 perccel ezelõtt készült, 08:50 UTC
Szélcsend
Hőmérséklet 1°C
Páratartalom 69%
Légköri nyomás 1013 hPa
Látótávolság 10 km, vagy több
felhőtlen 1500 m magasságban, és nincs gomolyfelhõ

METAR: LIMA 280850Z 00000KT CAVOK 01/M04 Q1013

Idő: 10:25 (09:25 UTC)


TAF: hiányzik

Meteorológiai megfigyelések és előrejelzések több, mint 4000 repülőtéren (METAR és TAF jelentéseket).

A térképen piros és sárga pontok jelzik az elérhető meteorológiai állomásokat.

Mozgassa az egeret a pont fölött, hogy megjelenjen az állomás neve.

Azután kattintson az időjárási megfigyelések és előrejelzések megtekintéséhez.

A térkép megváltoztatása: kattintson a fekete keresztel jelölt zöld gombra ráközelítéshez, a vonallal jelölt zöld gombra távolításhoz, vagy a zöld nyilakra a szomszédos térképek eléréséhez.


METAR-TAF: